createdAt,value
2018-01-21T00:00:36.978Z,90.15
2018-01-21T00:01:36.925Z,90.15
2018-01-21T00:02:36.872Z,90.25
2018-01-21T00:03:36.819Z,90.25
2018-01-21T00:04:36.765Z,90.11
2018-01-21T00:05:36.713Z,90.15
2018-01-21T00:06:36.660Z,90.15
2018-01-21T00:07:36.607Z,90.15
2018-01-21T00:08:36.554Z,90.34
2018-01-21T00:09:36.501Z,89.39
2018-01-21T00:10:36.449Z,90.06
2018-01-21T00:11:36.400Z,89.87
2018-01-21T00:12:36.342Z,89.68
2018-01-21T00:13:36.288Z,89.49
2018-01-21T00:14:36.236Z,89.77
2018-01-21T00:15:36.184Z,89.49
2018-01-21T00:16:36.130Z,89.39
2018-01-21T00:17:36.077Z,89.68
2018-01-21T00:18:36.024Z,89.87
2018-01-21T00:19:35.975Z,89.77
2018-01-21T00:20:35.919Z,89.96
2018-01-21T00:21:35.865Z,89.49
2018-01-21T00:22:35.813Z,89.39
2018-01-21T00:23:35.760Z,89.77
2018-01-21T00:24:35.706Z,89.96
2018-01-21T00:25:35.653Z,89.87
2018-01-21T00:26:35.600Z,89.96
2018-01-21T00:27:35.548Z,89.49
2018-01-21T00:28:35.494Z,89.68
2018-01-21T00:29:35.448Z,89.68
2018-01-21T00:30:35.389Z,89.68
2018-01-21T00:31:35.336Z,89.68
2018-01-21T00:32:35.283Z,89.68
2018-01-21T00:33:35.230Z,89.87
2018-01-21T00:34:35.177Z,89.68
2018-01-21T00:35:35.124Z,89.58
2018-01-21T00:36:35.071Z,89.49
2018-01-21T00:37:35.018Z,89.68
2018-01-21T00:38:34.965Z,89.96
2018-01-21T00:39:34.918Z,89.77
2018-01-21T00:40:34.859Z,89.77
2018-01-21T00:41:34.806Z,89.58
2018-01-21T00:42:34.753Z,89.68
2018-01-21T00:43:34.701Z,89.82
2018-01-21T00:44:34.647Z,89.96
2018-01-21T00:45:34.594Z,89.49
2018-01-21T00:46:34.542Z,89.77
2018-01-21T00:47:34.488Z,89.96
2018-01-21T00:48:34.435Z,89.73
2018-01-21T00:49:34.382Z,89.63
2018-01-21T00:50:34.329Z,89.63
2018-01-21T00:51:34.277Z,89.63
2018-01-21T00:52:34.223Z,89.82
2018-01-21T00:53:34.170Z,90.39
2018-01-21T00:54:34.117Z,90.25
2018-01-21T00:55:34.065Z,90.20
2018-01-21T00:56:34.011Z,90.20
2018-01-21T00:57:33.958Z,90.06
2018-01-21T00:58:33.905Z,90.25
2018-01-21T00:59:33.856Z,90.25
2018-01-21T01:00:33.798Z,89.68
2018-01-21T01:01:33.748Z,89.49
2018-01-21T01:02:33.693Z,89.68
2018-01-21T01:03:33.640Z,89.49
2018-01-21T01:04:33.587Z,89.77
2018-01-21T01:05:33.534Z,89.49
2018-01-21T01:06:33.480Z,89.68
2018-01-21T01:07:33.431Z,89.87
2018-01-21T01:08:33.374Z,89.68
2018-01-21T01:09:33.321Z,89.68
2018-01-21T01:10:33.269Z,89.87
2018-01-21T01:11:33.217Z,89.49
2018-01-21T01:12:33.162Z,89.30
2018-01-21T01:13:33.109Z,89.58
2018-01-21T01:14:33.056Z,89.68
2018-01-21T01:15:33.010Z,89.11
2018-01-21T01:16:33.000Z,89.30
2018-01-21T01:17:32.897Z,89.30
2018-01-21T01:18:32.845Z,89.20
2018-01-21T01:19:32.795Z,89.20
2018-01-21T01:20:32.738Z,89.20
2018-01-21T01:21:32.686Z,89.20
2018-01-21T01:22:32.634Z,89.30
2018-01-21T01:23:32.580Z,89.30
2018-01-21T01:24:32.526Z,89.39
2018-01-21T01:25:32.475Z,89.39
2018-01-21T01:26:32.420Z,89.30
2018-01-21T01:27:32.369Z,89.49
2018-01-21T01:28:32.314Z,89.30
2018-01-21T01:29:32.262Z,89.49
2018-01-21T01:30:32.209Z,88.73
2018-01-21T01:31:32.157Z,88.54
2018-01-21T01:32:32.102Z,88.35
2018-01-21T01:33:32.049Z,88.45
2018-01-21T01:34:31.997Z,88.73
2018-01-21T01:35:31.944Z,88.45
2018-01-21T01:36:31.890Z,88.82
2018-01-21T01:37:31.837Z,88.73
2018-01-21T01:38:31.785Z,88.54
2018-01-21T01:39:31.733Z,88.92
2018-01-21T01:40:31.679Z,88.54
2018-01-21T01:41:31.625Z,88.64
2018-01-21T01:42:31.573Z,88.64
2018-01-21T01:43:31.521Z,88.35
2018-01-21T01:44:31.467Z,88.35
2018-01-21T01:45:31.415Z,88.45
2018-01-21T01:46:31.362Z,88.54
2018-01-21T01:47:31.310Z,88.73
2018-01-21T01:48:31.256Z,88.64
2018-01-21T01:49:31.207Z,88.73
2018-01-21T01:50:31.151Z,88.45
2018-01-21T01:51:31.098Z,88.26
2018-01-21T01:52:31.045Z,88.07
2018-01-21T01:53:30.994Z,87.98
2018-01-21T01:54:30.940Z,88.30
2018-01-21T01:55:30.887Z,88.11
2018-01-21T01:56:30.834Z,88.11
2018-01-21T01:57:30.783Z,88.02
2018-01-21T01:58:30.728Z,88.11
2018-01-21T01:59:30.676Z,87.83
2018-01-21T02:00:30.623Z,87.64
2018-01-21T02:01:30.570Z,87.92
2018-01-21T02:02:30.518Z,87.83
2018-01-21T02:03:30.466Z,87.64
2018-01-21T02:04:30.412Z,87.83
2018-01-21T02:05:30.360Z,87.73
2018-01-21T02:06:30.307Z,87.35
2018-01-21T02:07:30.255Z,87.64
2018-01-21T02:08:30.201Z,87.59
2018-01-21T02:09:30.149Z,87.40
2018-01-21T02:10:30.097Z,87.83
2018-01-21T02:11:30.045Z,87.83
2018-01-21T02:12:29.989Z,87.83
2018-01-21T02:13:29.939Z,87.73
2018-01-21T02:14:29.890Z,88.02
2018-01-21T02:15:29.833Z,87.45
2018-01-21T02:16:29.779Z,87.64
2018-01-21T02:17:29.726Z,87.83
2018-01-21T02:18:29.674Z,88.02
2018-01-21T02:19:29.621Z,87.35
2018-01-21T02:20:29.569Z,88.11
2018-01-21T02:21:29.516Z,87.92
2018-01-21T02:22:29.463Z,87.45
2018-01-21T02:23:29.412Z,88.02
2018-01-21T02:24:29.358Z,87.40
2018-01-21T02:25:29.306Z,87.40
2018-01-21T02:26:29.253Z,87.64
2018-01-21T02:27:29.201Z,87.45
2018-01-21T02:28:29.147Z,87.50
2018-01-21T02:29:29.094Z,87.45
2018-01-21T02:30:29.043Z,87.54
2018-01-21T02:31:29.031Z,87.64
2018-01-21T02:32:28.936Z,87.35
2018-01-21T02:33:28.884Z,87.45
2018-01-21T02:34:28.832Z,87.45
2018-01-21T02:35:28.779Z,87.92
2018-01-21T02:36:28.727Z,88.02
2018-01-21T02:37:28.675Z,87.35
2018-01-21T02:38:28.621Z,87.26
2018-01-21T02:39:28.570Z,87.35
2018-01-21T02:40:28.517Z,87.35
2018-01-21T02:41:28.464Z,87.64
2018-01-21T02:42:28.412Z,87.26
2018-01-21T02:43:28.360Z,88.02
2018-01-21T02:44:28.306Z,87.73
2018-01-21T02:45:28.254Z,87.92
2018-01-21T02:46:28.201Z,87.45
2018-01-21T02:47:28.150Z,87.92
2018-01-21T02:48:28.495Z,87.45
2018-01-21T02:49:28.043Z,87.07
2018-01-21T02:50:28.391Z,87.73
2018-01-21T02:51:28.289Z,87.31
2018-01-21T02:52:28.185Z,87.73
2018-01-21T02:53:28.033Z,87.59
2018-01-21T02:54:28.081Z,87.78
2018-01-21T02:55:27.981Z,87.54
2018-01-21T02:56:27.875Z,87.45
2018-01-21T02:57:27.772Z,87.69
2018-01-21T02:58:27.670Z,87.26
2018-01-21T02:59:27.667Z,87.45
2018-01-21T03:00:27.564Z,87.64
2018-01-21T03:01:27.412Z,87.54
2018-01-21T03:02:27.359Z,87.45
2018-01-21T03:03:27.312Z,87.35
2018-01-21T03:04:27.253Z,87.73
2018-01-21T03:05:27.201Z,87.26
2018-01-21T03:06:27.149Z,87.92
2018-01-21T03:07:27.097Z,87.45
2018-01-21T03:08:27.043Z,87.45
2018-01-21T03:09:26.991Z,88.11
2018-01-21T03:10:26.938Z,88.02
2018-01-21T03:11:26.886Z,87.54
2018-01-21T03:12:26.833Z,87.35
2018-01-21T03:13:26.780Z,87.64
2018-01-21T03:14:26.728Z,87.64
2018-01-21T03:15:26.776Z,88.02
2018-01-21T03:16:26.622Z,88.02
2018-01-21T03:17:26.570Z,87.64
2018-01-21T03:18:26.517Z,87.45
2018-01-21T03:19:26.468Z,87.02
2018-01-21T03:20:26.412Z,87.73
2018-01-21T03:21:26.360Z,87.45
2018-01-21T03:22:26.308Z,87.45
2018-01-21T03:23:26.256Z,87.45
2018-01-21T03:24:26.202Z,88.02
2018-01-21T03:25:26.150Z,88.11
2018-01-21T03:26:26.097Z,87.26
2018-01-21T03:27:26.045Z,88.02
2018-01-21T03:28:25.991Z,87.35
2018-01-21T03:29:25.939Z,88.02
2018-01-21T03:30:25.887Z,87.92
2018-01-21T03:31:25.835Z,87.45
2018-01-21T03:32:25.780Z,87.54
2018-01-21T03:33:25.729Z,87.26
2018-01-21T03:34:25.677Z,88.11
2018-01-21T03:35:25.624Z,87.45
2018-01-21T03:36:25.571Z,87.35
2018-01-21T03:37:25.520Z,88.11
2018-01-21T03:38:25.466Z,87.45
2018-01-21T03:39:25.413Z,87.92
2018-01-21T03:40:25.361Z,87.40
2018-01-21T03:41:25.308Z,87.45
2018-01-21T03:42:25.256Z,87.88
2018-01-21T03:43:25.203Z,87.88
2018-01-21T03:44:25.150Z,87.40
2018-01-21T03:45:25.097Z,87.69
2018-01-21T03:46:25.045Z,87.45
2018-01-21T03:47:24.993Z,87.78
2018-01-21T03:48:24.940Z,87.59
2018-01-21T03:49:24.890Z,87.59
2018-01-21T03:50:24.835Z,87.78
2018-01-21T03:51:24.783Z,87.98
2018-01-21T03:52:24.729Z,87.88
2018-01-21T03:53:24.677Z,87.78
2018-01-21T03:54:24.624Z,87.88
2018-01-21T03:55:24.572Z,87.78
2018-01-21T03:56:24.518Z,87.50
2018-01-21T03:57:24.465Z,87.40
2018-01-21T03:58:24.413Z,87.78
2018-01-21T03:59:24.362Z,87.88
2018-01-21T04:00:24.308Z,87.78
2018-01-21T04:01:24.254Z,87.78
2018-01-21T04:02:24.202Z,87.78
2018-01-21T04:03:24.150Z,87.73
2018-01-21T04:04:24.097Z,87.54
2018-01-21T04:05:24.043Z,87.92
2018-01-21T04:06:23.997Z,87.35
2018-01-21T04:07:23.940Z,88.02
2018-01-21T04:08:23.886Z,87.92
2018-01-21T04:09:23.834Z,87.26
2018-01-21T04:10:23.781Z,87.54
2018-01-21T04:11:23.729Z,87.73
2018-01-21T04:12:23.676Z,87.16
2018-01-21T04:13:23.624Z,87.35
2018-01-21T04:14:23.571Z,87.07
2018-01-21T04:15:23.518Z,87.16
2018-01-21T04:16:23.466Z,87.16
2018-01-21T04:17:23.413Z,87.16
2018-01-21T04:18:23.363Z,87.45
2018-01-21T04:19:23.308Z,87.35
2018-01-21T04:20:23.254Z,87.26
2018-01-21T04:21:23.202Z,87.16
2018-01-21T04:22:23.150Z,87.16
2018-01-21T04:23:23.097Z,86.83
2018-01-21T04:24:23.044Z,86.69
2018-01-21T04:25:22.998Z,87.26
2018-01-21T04:26:22.938Z,87.45
2018-01-21T04:27:22.886Z,87.54
2018-01-21T04:28:22.833Z,87.59
2018-01-21T04:29:22.780Z,87.92
2018-01-21T04:30:22.727Z,87.54
2018-01-21T04:31:22.675Z,87.35
2018-01-21T04:32:22.621Z,87.35
2018-01-21T04:33:22.569Z,87.45
2018-01-21T04:34:22.516Z,87.35
2018-01-21T04:35:22.463Z,87.35
2018-01-21T04:36:22.410Z,87.45
2018-01-21T04:37:22.359Z,87.35
2018-01-21T04:38:22.305Z,86.69
2018-01-21T04:39:22.252Z,86.98
2018-01-21T04:40:22.199Z,87.16
2018-01-21T04:41:22.147Z,86.98
2018-01-21T04:42:22.094Z,86.88
2018-01-21T04:43:22.042Z,86.98
2018-01-21T04:44:22.038Z,86.69
2018-01-21T04:45:21.935Z,86.79
2018-01-21T04:46:21.882Z,86.98
2018-01-21T04:47:21.830Z,87.16
2018-01-21T04:48:21.776Z,86.98
2018-01-21T04:49:21.724Z,87.26
2018-01-21T04:50:21.672Z,87.16
2018-01-21T04:51:21.619Z,86.98
2018-01-21T04:52:21.566Z,86.88
2018-01-21T04:53:21.513Z,86.88
2018-01-21T04:54:21.461Z,87.07
2018-01-21T04:55:21.409Z,87.07
2018-01-21T04:56:21.355Z,87.07
2018-01-21T04:57:21.302Z,86.88
2018-01-21T04:58:21.250Z,86.83
2018-01-21T04:59:21.197Z,86.88
2018-01-21T05:00:21.143Z,87.07
2018-01-21T05:01:21.090Z,86.98
2018-01-21T05:02:21.039Z,87.16
2018-01-21T05:03:20.986Z,87.16
2018-01-21T05:04:20.932Z,87.31
2018-01-21T05:05:20.880Z,87.12
2018-01-21T05:06:20.827Z,87.31
2018-01-21T05:07:20.774Z,87.21
2018-01-21T05:08:20.721Z,87.69
2018-01-21T05:09:20.668Z,87.88
2018-01-21T05:10:20.615Z,87.21
2018-01-21T05:11:20.564Z,87.50
2018-01-21T05:12:20.509Z,87.50
2018-01-21T05:13:20.456Z,87.54
2018-01-21T05:14:20.403Z,87.64
2018-01-21T05:15:20.350Z,87.16
2018-01-21T05:16:20.297Z,87.35
2018-01-21T05:17:20.244Z,87.26
2018-01-21T05:18:20.192Z,87.35
2018-01-21T05:19:20.139Z,86.69
2018-01-21T05:20:20.085Z,86.88
2018-01-21T05:21:20.032Z,86.88
2018-01-21T05:22:19.980Z,86.79
2018-01-21T05:23:19.927Z,86.79
2018-01-21T05:24:19.874Z,87.07
2018-01-21T05:25:19.821Z,86.79
2018-01-21T05:26:19.768Z,87.16
2018-01-21T05:27:19.716Z,87.54
2018-01-21T05:28:19.664Z,87.35
2018-01-21T05:29:19.709Z,87.35
2018-01-21T05:30:19.556Z,86.88
2018-01-21T05:31:19.504Z,87.07
2018-01-21T05:32:19.455Z,86.98
2018-01-21T05:33:19.405Z,86.98
2018-01-21T05:34:19.346Z,87.07
2018-01-21T05:35:19.294Z,86.98
2018-01-21T05:36:19.240Z,87.07
2018-01-21T05:37:19.188Z,86.88
2018-01-21T05:38:19.134Z,86.98
2018-01-21T05:39:19.082Z,86.88
2018-01-21T05:40:19.030Z,86.69
2018-01-21T05:41:18.976Z,86.60
2018-01-21T05:42:18.935Z,86.69
2018-01-21T05:43:18.871Z,87.07
2018-01-21T05:44:18.818Z,86.69
2018-01-21T05:45:18.765Z,86.88
2018-01-21T05:46:18.713Z,87.16
2018-01-21T05:47:18.661Z,86.88
2018-01-21T05:48:18.607Z,87.07
2018-01-21T05:49:18.555Z,86.50
2018-01-21T05:50:18.503Z,87.26
2018-01-21T05:51:18.450Z,87.16
2018-01-21T05:52:18.397Z,86.69
2018-01-21T05:53:18.345Z,87.16
2018-01-21T05:54:18.292Z,87.07
2018-01-21T05:55:18.241Z,86.88
2018-01-21T05:56:18.187Z,87.16
2018-01-21T05:57:18.135Z,87.07
2018-01-21T05:58:18.083Z,86.69
2018-01-21T05:59:18.030Z,87.16
2018-01-21T06:00:17.977Z,87.07
2018-01-21T06:01:17.924Z,87.07
2018-01-21T06:02:17.871Z,86.79
2018-01-21T06:03:17.820Z,87.16
2018-01-21T06:04:17.766Z,87.07
2018-01-21T06:05:17.713Z,87.07
2018-01-21T06:06:17.661Z,86.88
2018-01-21T06:07:17.610Z,87.07
2018-01-21T06:08:17.560Z,86.98
2018-01-21T06:09:17.503Z,86.98
2018-01-21T06:10:17.450Z,86.88
2018-01-21T06:11:17.398Z,86.88
2018-01-21T06:12:17.344Z,87.07
2018-01-21T06:13:17.292Z,86.79
2018-01-21T06:14:17.239Z,86.88
2018-01-21T06:15:17.187Z,87.07
2018-01-21T06:16:17.134Z,87.16
2018-01-21T06:17:17.081Z,86.88
2018-01-21T06:18:17.029Z,87.07
2018-01-21T06:19:16.976Z,87.07
2018-01-21T06:20:16.923Z,87.26
2018-01-21T06:21:16.871Z,86.88
2018-01-21T06:22:16.817Z,87.16
2018-01-21T06:23:16.765Z,86.50
2018-01-21T06:24:16.713Z,86.79
2018-01-21T06:25:17.064Z,86.60
2018-01-21T06:26:16.958Z,86.88
2018-01-21T06:27:16.956Z,86.88
2018-01-21T06:28:16.852Z,87.26
2018-01-21T06:29:16.750Z,87.26
2018-01-21T06:30:16.647Z,87.26
2018-01-21T06:31:16.595Z,87.16
2018-01-21T06:32:16.492Z,87.16
2018-01-21T06:33:16.389Z,87.16
2018-01-21T06:34:16.289Z,87.26
2018-01-21T06:35:16.184Z,87.26
2018-01-21T06:36:16.237Z,87.16
2018-01-21T06:37:16.078Z,86.98
2018-01-21T06:38:15.976Z,86.60
2018-01-21T06:39:15.923Z,86.69
2018-01-21T06:40:15.873Z,86.69
2018-01-21T06:41:15.819Z,86.88
2018-01-21T06:42:15.766Z,86.41
2018-01-21T06:43:15.713Z,86.98
2018-01-21T06:44:15.659Z,86.98
2018-01-21T06:45:15.608Z,87.16
2018-01-21T06:46:15.554Z,87.16
2018-01-21T06:47:15.503Z,86.79
2018-01-21T06:48:15.449Z,87.07
2018-01-21T06:49:15.397Z,86.98
2018-01-21T06:50:15.344Z,86.98
2018-01-21T06:51:15.292Z,86.98
2018-01-21T06:52:15.239Z,86.79
2018-01-21T06:53:15.186Z,87.16
2018-01-21T06:54:15.134Z,87.16
2018-01-21T06:55:15.187Z,87.26
2018-01-21T06:56:15.028Z,87.16
2018-01-21T06:57:14.975Z,87.16
2018-01-21T06:58:14.925Z,86.98
2018-01-21T06:59:14.870Z,87.16
2018-01-21T07:00:14.817Z,86.98
2018-01-21T07:01:14.764Z,86.98
2018-01-21T07:02:14.712Z,87.07
2018-01-21T07:03:14.660Z,87.07
2018-01-21T07:04:14.608Z,87.16
2018-01-21T07:05:14.553Z,86.88
2018-01-21T07:06:14.500Z,87.26
2018-01-21T07:07:14.449Z,87.16
2018-01-21T07:08:14.395Z,86.69
2018-01-21T07:09:14.347Z,87.16
2018-01-21T07:10:14.290Z,86.50
2018-01-21T07:11:14.287Z,86.50
2018-01-21T07:12:14.183Z,86.88
2018-01-21T07:13:14.136Z,86.69
2018-01-21T07:14:14.079Z,86.60
2018-01-21T07:15:14.026Z,86.69
2018-01-21T07:16:13.972Z,86.60
2018-01-21T07:17:13.920Z,86.50
2018-01-21T07:18:13.868Z,86.79
2018-01-21T07:19:13.815Z,87.26
2018-01-21T07:20:13.764Z,87.07
2018-01-21T07:21:13.709Z,87.26
2018-01-21T07:22:13.657Z,87.07
2018-01-21T07:23:13.604Z,87.26
2018-01-21T07:24:13.554Z,86.88
2018-01-21T07:25:13.498Z,86.88
2018-01-21T07:26:13.445Z,86.98
2018-01-21T07:27:13.393Z,86.88
2018-01-21T07:28:13.340Z,86.69
2018-01-21T07:29:13.337Z,86.69
2018-01-21T07:30:13.235Z,86.22
2018-01-21T07:31:13.183Z,86.12
2018-01-21T07:32:13.129Z,86.50
2018-01-21T07:33:13.077Z,86.31
2018-01-21T07:34:13.025Z,86.60
2018-01-21T07:35:12.972Z,86.50
2018-01-21T07:36:12.919Z,86.41
2018-01-21T07:37:12.867Z,86.22
2018-01-21T07:38:12.814Z,85.74
2018-01-21T07:39:12.762Z,86.03
2018-01-21T07:40:12.709Z,85.84
2018-01-21T07:41:12.657Z,85.84
2018-01-21T07:42:12.605Z,86.03
2018-01-21T07:43:12.552Z,86.03
2018-01-21T07:44:12.499Z,85.84
2018-01-21T07:45:12.498Z,85.84
2018-01-21T07:46:12.395Z,85.65
2018-01-21T07:47:12.343Z,85.74
2018-01-21T07:48:12.290Z,85.84
2018-01-21T07:49:12.238Z,86.03
2018-01-21T07:50:12.187Z,85.78
2018-01-21T07:51:12.134Z,85.65
2018-01-21T07:52:12.081Z,85.88
2018-01-21T07:53:12.029Z,85.88
2018-01-21T07:54:11.978Z,86.26
2018-01-21T07:55:12.003Z,86.16
2018-01-21T07:56:11.873Z,85.97
2018-01-21T07:57:11.820Z,85.69
2018-01-21T07:58:11.768Z,85.69
2018-01-21T07:59:11.723Z,85.69
2018-01-21T08:00:11.664Z,85.97
2018-01-21T08:01:11.611Z,86.07
2018-01-21T08:02:11.559Z,86.16
2018-01-21T08:03:11.509Z,85.41
2018-01-21T08:04:11.455Z,85.78
2018-01-21T08:05:11.403Z,85.78
2018-01-21T08:06:11.351Z,85.50
2018-01-21T08:07:11.302Z,85.78
2018-01-21T08:08:11.246Z,85.13
2018-01-21T08:09:11.194Z,85.31
2018-01-21T08:10:11.146Z,85.22
2018-01-21T08:11:11.091Z,85.97
2018-01-21T08:12:11.038Z,85.22
2018-01-21T08:13:10.986Z,85.41
2018-01-21T08:14:10.934Z,85.41
2018-01-21T08:15:10.882Z,85.60
2018-01-21T08:16:10.830Z,85.88
2018-01-21T08:17:10.778Z,85.50
2018-01-21T08:18:10.728Z,85.50
2018-01-21T08:19:10.674Z,84.94
2018-01-21T08:20:10.622Z,85.69
2018-01-21T08:21:10.570Z,85.69
2018-01-21T08:22:10.519Z,85.69
2018-01-21T08:23:10.467Z,85.69
2018-01-21T08:24:10.415Z,85.13
2018-01-21T08:25:10.370Z,85.31
2018-01-21T08:26:10.312Z,85.13
2018-01-21T08:27:10.259Z,85.41
2018-01-21T08:28:10.216Z,84.74
2018-01-21T08:29:10.158Z,84.84
2018-01-21T08:30:10.104Z,84.94
2018-01-21T08:31:10.052Z,85.41
2018-01-21T08:32:10.002Z,85.22
2018-01-21T08:33:09.948Z,85.22
2018-01-21T08:34:09.897Z,85.22
2018-01-21T08:35:09.845Z,85.50
2018-01-21T08:36:09.792Z,84.46
2018-01-21T08:37:09.743Z,84.65
2018-01-21T08:38:09.696Z,84.84
2018-01-21T08:39:09.638Z,84.55
2018-01-21T08:40:09.585Z,84.46
2018-01-21T08:41:09.534Z,84.55
2018-01-21T08:42:09.482Z,84.65
2018-01-21T08:43:09.431Z,84.46
2018-01-21T08:44:09.379Z,84.46
2018-01-21T08:45:09.327Z,84.55
2018-01-21T08:46:09.276Z,84.74
2018-01-21T08:47:09.224Z,84.55
2018-01-21T08:48:09.176Z,84.55
2018-01-21T08:49:09.120Z,84.55
2018-01-21T08:50:09.070Z,84.46
2018-01-21T08:51:09.018Z,84.46
2018-01-21T08:52:08.966Z,84.65
2018-01-21T08:53:08.914Z,84.46
2018-01-21T08:54:08.869Z,84.65
2018-01-21T08:55:08.812Z,84.55
2018-01-21T08:56:08.759Z,84.36
2018-01-21T08:57:08.708Z,84.65
2018-01-21T08:58:08.657Z,84.36
2018-01-21T08:59:08.611Z,84.55
2018-01-21T09:00:08.559Z,83.98
2018-01-21T09:01:08.501Z,84.27
2018-01-21T09:02:08.450Z,83.80
2018-01-21T09:03:08.399Z,84.08
2018-01-21T09:04:08.346Z,83.98
2018-01-21T09:05:08.295Z,84.03
2018-01-21T09:06:08.244Z,83.89
2018-01-21T09:07:08.192Z,84.12
2018-01-21T09:08:08.167Z,84.12
2018-01-21T09:09:08.089Z,83.89
2018-01-21T09:10:08.037Z,83.74
2018-01-21T09:11:07.986Z,84.03
2018-01-21T09:12:07.934Z,83.98
2018-01-21T09:13:07.882Z,83.94
2018-01-21T09:14:07.982Z,83.94
2018-01-21T09:15:07.780Z,84.03
2018-01-21T09:16:07.728Z,84.03
2018-01-21T09:17:07.677Z,83.55
2018-01-21T09:18:07.625Z,83.55
2018-01-21T09:19:07.574Z,83.74
2018-01-21T09:20:07.522Z,83.55
2018-01-21T09:21:07.471Z,83.65
2018-01-21T09:22:07.422Z,83.55
2018-01-21T09:23:07.369Z,83.84
2018-01-21T09:24:07.319Z,83.74
2018-01-21T09:25:07.316Z,83.55
2018-01-21T09:26:07.215Z,83.74
2018-01-21T09:27:07.163Z,83.55
2018-01-21T09:28:07.111Z,83.46
2018-01-21T09:29:07.060Z,83.17
2018-01-21T09:30:07.012Z,83.65
2018-01-21T09:31:06.958Z,83.65
2018-01-21T09:32:06.906Z,83.36
2018-01-21T09:33:06.855Z,83.17
2018-01-21T09:34:06.804Z,83.46
2018-01-21T09:35:06.753Z,83.08
2018-01-21T09:36:06.701Z,83.08
2018-01-21T09:37:06.650Z,83.65
2018-01-21T09:38:06.652Z,83.27
2018-01-21T09:39:06.553Z,83.65
2018-01-21T09:40:06.498Z,83.65
2018-01-21T09:41:06.445Z,83.55
2018-01-21T09:42:06.447Z,83.27
2018-01-21T09:43:06.346Z,82.79
2018-01-21T09:44:06.291Z,82.60
2018-01-21T09:45:06.240Z,82.70
2018-01-21T09:46:06.189Z,82.89
2018-01-21T09:47:06.139Z,83.08
2018-01-21T09:48:06.087Z,82.98
2018-01-21T09:49:06.040Z,83.08
2018-01-21T09:50:05.988Z,82.98
2018-01-21T09:51:05.934Z,82.98
2018-01-21T09:52:05.883Z,82.60
2018-01-21T09:53:05.832Z,82.60
2018-01-21T09:54:05.780Z,82.60
2018-01-21T09:55:05.730Z,82.89
2018-01-21T09:56:06.179Z,82.51
2018-01-21T09:57:05.697Z,82.32
2018-01-21T09:58:06.027Z,82.32
2018-01-21T09:59:05.925Z,82.32
2018-01-21T10:00:05.824Z,82.32
2018-01-21T10:01:05.673Z,82.13
2018-01-21T10:02:05.723Z,82.51
2018-01-21T10:03:05.622Z,82.51
2018-01-21T10:04:05.470Z,82.04
2018-01-21T10:05:05.369Z,82.32
2018-01-21T10:06:05.268Z,82.13
2018-01-21T10:07:05.317Z,82.60
2018-01-21T10:08:05.165Z,82.51
2018-01-21T10:09:05.114Z,82.60
2018-01-21T10:10:04.965Z,82.51
2018-01-21T10:11:04.963Z,82.60
2018-01-21T10:12:04.861Z,82.51
2018-01-21T10:13:04.810Z,82.51
2018-01-21T10:14:04.759Z,82.60
2018-01-21T10:15:04.708Z,82.42
2018-01-21T10:16:04.656Z,82.60
2018-01-21T10:17:04.605Z,82.60
2018-01-21T10:18:04.554Z,82.04
2018-01-21T10:19:04.503Z,82.51
2018-01-21T10:20:04.453Z,82.42
2018-01-21T10:21:04.400Z,82.51
2018-01-21T10:22:04.350Z,82.60
2018-01-21T10:23:04.299Z,82.60
2018-01-21T10:24:04.247Z,82.51
2018-01-21T10:25:04.202Z,82.32
2018-01-21T10:26:04.145Z,82.23
2018-01-21T10:27:04.094Z,82.23
2018-01-21T10:28:04.042Z,82.32
2018-01-21T10:29:03.992Z,82.32
2018-01-21T10:30:03.941Z,82.42
2018-01-21T10:31:03.890Z,82.23
2018-01-21T10:32:03.838Z,81.85
2018-01-21T10:33:03.787Z,81.94
2018-01-21T10:34:03.737Z,82.04
2018-01-21T10:35:03.686Z,82.13
2018-01-21T10:36:03.633Z,81.85
2018-01-21T10:37:03.582Z,81.94
2018-01-21T10:38:03.532Z,82.23
2018-01-21T10:39:03.480Z,82.23
2018-01-21T10:40:03.432Z,81.94
2018-01-21T10:41:03.379Z,81.75
2018-01-21T10:42:03.328Z,81.75
2018-01-21T10:43:03.277Z,82.04
2018-01-21T10:44:03.226Z,81.94
2018-01-21T10:45:03.174Z,81.75
2018-01-21T10:46:03.124Z,81.27
2018-01-21T10:47:03.073Z,81.75
2018-01-21T10:48:03.025Z,81.66
2018-01-21T10:49:02.970Z,81.66
2018-01-21T10:50:02.920Z,81.47
2018-01-21T10:51:02.869Z,81.37
2018-01-21T10:52:02.817Z,81.66
2018-01-21T10:53:02.768Z,81.66
2018-01-21T10:54:02.716Z,81.56
2018-01-21T10:55:02.715Z,81.56
2018-01-21T10:56:02.613Z,81.66
2018-01-21T10:57:02.563Z,81.56
2018-01-21T10:58:02.512Z,81.18
2018-01-21T10:59:02.464Z,81.56
2018-01-21T11:00:02.409Z,81.47
2018-01-21T11:01:02.360Z,81.75
2018-01-21T11:02:02.308Z,81.85
2018-01-21T11:03:02.257Z,81.37
2018-01-21T11:04:02.205Z,81.47
2018-01-21T11:05:02.156Z,81.27
2018-01-21T11:06:02.104Z,80.90
2018-01-21T11:07:02.054Z,81.47
2018-01-21T11:08:02.001Z,80.99
2018-01-21T11:09:01.951Z,81.27
2018-01-21T11:10:01.901Z,81.37
2018-01-21T11:11:01.849Z,81.37
2018-01-21T11:12:01.799Z,81.37
2018-01-21T11:13:01.803Z,81.66
2018-01-21T11:14:01.697Z,81.47
2018-01-21T11:15:01.689Z,81.09
2018-01-21T11:16:01.603Z,80.90
2018-01-21T11:17:01.543Z,80.80
2018-01-21T11:18:01.493Z,80.99
2018-01-21T11:19:01.442Z,80.99
2018-01-21T11:20:01.391Z,80.71
2018-01-21T11:21:01.340Z,80.52
2018-01-21T11:22:01.289Z,80.71
2018-01-21T11:23:01.239Z,80.62
2018-01-21T11:24:01.188Z,80.90
2018-01-21T11:25:01.136Z,80.62
2018-01-21T11:26:01.087Z,81.04
2018-01-21T11:27:01.035Z,80.75
2018-01-21T11:28:00.984Z,80.65
2018-01-21T11:29:00.933Z,80.75
2018-01-21T11:30:00.883Z,80.84
2018-01-21T11:31:00.832Z,80.84
2018-01-21T11:32:00.780Z,80.94
2018-01-21T11:33:00.733Z,80.94
2018-01-21T11:34:00.679Z,80.94
2018-01-21T11:35:00.630Z,80.75
2018-01-21T11:36:00.577Z,80.46
2018-01-21T11:37:00.527Z,80.65
2018-01-21T11:38:00.476Z,80.65
2018-01-21T11:39:00.426Z,80.65
2018-01-21T11:40:00.374Z,80.56
2018-01-21T11:41:00.374Z,80.56
2018-01-21T11:42:00.273Z,80.46
2018-01-21T11:43:00.223Z,80.56
2018-01-21T11:44:00.172Z,80.56
2018-01-21T11:45:00.121Z,80.75
2018-01-21T11:46:00.120Z,80.65
2018-01-21T11:47:00.021Z,80.46
2018-01-21T11:47:59.969Z,80.75
2018-01-21T11:48:59.918Z,80.65
2018-01-21T11:49:59.870Z,80.84
2018-01-21T11:50:59.818Z,80.75
2018-01-21T11:51:59.766Z,80.84
2018-01-21T11:52:59.716Z,80.46
2018-01-21T11:53:59.666Z,80.75
2018-01-21T11:54:59.615Z,80.75
2018-01-21T11:55:59.564Z,80.27
2018-01-21T11:56:59.514Z,80.56
2018-01-21T11:57:59.463Z,80.27
2018-01-21T11:58:59.422Z,80.56
2018-01-21T11:59:59.362Z,80.37
2018-01-21T12:00:59.312Z,80.18
2018-01-21T12:01:59.261Z,80.37
2018-01-21T12:02:59.211Z,80.18
2018-01-21T12:03:59.160Z,80.46
2018-01-21T12:04:59.110Z,80.08
2018-01-21T12:05:59.059Z,79.80
2018-01-21T12:06:59.009Z,79.80
2018-01-21T12:07:58.958Z,79.90
2018-01-21T12:08:58.914Z,79.99
2018-01-21T12:09:58.858Z,79.99
2018-01-21T12:10:58.808Z,79.99
2018-01-21T12:11:58.756Z,80.37
2018-01-21T12:12:58.706Z,79.33
2018-01-21T12:13:58.656Z,79.71
2018-01-21T12:14:58.606Z,79.61
2018-01-21T12:15:58.554Z,80.37
2018-01-21T12:16:58.505Z,79.99
2018-01-21T12:17:58.454Z,79.99
2018-01-21T12:18:58.404Z,79.42
2018-01-21T12:19:58.355Z,79.52
2018-01-21T12:20:58.303Z,80.18
2018-01-21T12:21:58.256Z,80.08
2018-01-21T12:22:58.205Z,80.08
2018-01-21T12:23:58.151Z,79.99
2018-01-21T12:24:58.201Z,79.99
2018-01-21T12:25:58.051Z,79.90
2018-01-21T12:26:58.001Z,79.71
2018-01-21T12:27:57.949Z,79.52
2018-01-21T12:28:57.899Z,79.90
2018-01-21T12:29:57.849Z,80.18
2018-01-21T12:30:57.799Z,79.90
2018-01-21T12:31:57.747Z,79.90
2018-01-21T12:32:57.697Z,79.90
2018-01-21T12:33:57.647Z,79.90
2018-01-21T12:34:57.596Z,79.80
2018-01-21T12:35:57.545Z,79.80
2018-01-21T12:36:57.495Z,80.18
2018-01-21T12:37:57.448Z,80.46
2018-01-21T12:38:57.400Z,80.27
2018-01-21T12:39:57.343Z,80.27
2018-01-21T12:40:57.293Z,80.18
2018-01-21T12:41:57.243Z,80.18
2018-01-21T12:42:57.192Z,80.27
2018-01-21T12:43:57.140Z,80.46
2018-01-21T12:44:57.091Z,80.18
2018-01-21T12:45:57.044Z,80.08
2018-01-21T12:46:56.990Z,80.18
2018-01-21T12:47:56.939Z,79.99
2018-01-21T12:48:56.889Z,80.18
2018-01-21T12:49:56.839Z,79.99
2018-01-21T12:50:56.788Z,79.99
2018-01-21T12:51:56.737Z,80.27